sensor_id;sensor_type;location;lat;lon;timestamp;temperature;humidity
74384;DHT22;62824;52.994;-3.936;2023-02-17T00:02:14;9.40;99.90
74384;DHT22;62824;52.994;-3.936;2023-02-17T00:04:40;9.40;99.90
74384;DHT22;62824;52.994;-3.936;2023-02-17T00:07:05;9.40;99.90
74384;DHT22;62824;52.994;-3.936;2023-02-17T00:09:31;9.40;99.90
74384;DHT22;62824;52.994;-3.936;2023-02-17T00:11:57;9.40;99.90
74384;DHT22;62824;52.994;-3.936;2023-02-17T00:14:22;9.40;99.90
74384;DHT22;62824;52.994;-3.936;2023-02-17T00:16:48;9.40;99.90
74384;DHT22;62824;52.994;-3.936;2023-02-17T00:19:14;9.40;99.90
74384;DHT22;62824;52.994;-3.936;2023-02-17T00:21:50;9.40;99.90
74384;DHT22;62824;52.994;-3.936;2023-02-17T00:24:16;9.50;99.90
74384;DHT22;62824;52.994;-3.936;2023-02-17T00:26:42;9.50;99.90
74384;DHT22;62824;52.994;-3.936;2023-02-17T00:29:08;9.50;99.90
74384;DHT22;62824;52.994;-3.936;2023-02-17T00:31:33;9.50;99.90
74384;DHT22;62824;52.994;-3.936;2023-02-17T00:33:59;9.40;99.90
74384;DHT22;62824;52.994;-3.936;2023-02-17T00:36:26;9.50;99.90
74384;DHT22;62824;52.994;-3.936;2023-02-17T00:38:54;9.50;99.90
74384;DHT22;62824;52.994;-3.936;2023-02-17T00:41:20;9.50;99.90
74384;DHT22;62824;52.994;-3.936;2023-02-17T00:43:47;9.40;99.90
74384;DHT22;62824;52.994;-3.936;2023-02-17T00:46:13;9.40;99.90
74384;DHT22;62824;52.994;-3.936;2023-02-17T00:48:39;9.40;99.90
74384;DHT22;62824;52.994;-3.936;2023-02-17T00:51:05;9.40;99.90
74384;DHT22;62824;52.994;-3.936;2023-02-17T00:53:31;9.40;99.90
74384;DHT22;62824;52.994;-3.936;2023-02-17T00:55:57;9.40;99.90
74384;DHT22;62824;52.994;-3.936;2023-02-17T00:58:23;9.40;99.90
74384;DHT22;62824;52.994;-3.936;2023-02-17T01:00:49;9.40;99.90
74384;DHT22;62824;52.994;-3.936;2023-02-17T01:03:16;9.40;99.90
74384;DHT22;62824;52.994;-3.936;2023-02-17T01:05:44;9.40;99.90
74384;DHT22;62824;52.994;-3.936;2023-02-17T01:08:10;9.40;99.90
74384;DHT22;62824;52.994;-3.936;2023-02-17T01:10:37;9.40;99.90
74384;DHT22;62824;52.994;-3.936;2023-02-17T01:13:04;9.40;99.90
74384;DHT22;62824;52.994;-3.936;2023-02-17T01:15:30;9.30;99.90
74384;DHT22;62824;52.994;-3.936;2023-02-17T01:17:57;9.40;99.90
74384;DHT22;62824;52.994;-3.936;2023-02-17T01:20:23;9.40;99.90
74384;DHT22;62824;52.994;-3.936;2023-02-17T01:22:48;9.40;99.90
74384;DHT22;62824;52.994;-3.936;2023-02-17T01:25:14;9.30;99.90
74384;DHT22;62824;52.994;-3.936;2023-02-17T01:27:40;9.40;99.90
74384;DHT22;62824;52.994;-3.936;2023-02-17T01:30:06;9.40;99.90
74384;DHT22;62824;52.994;-3.936;2023-02-17T01:32:31;9.40;99.90
74384;DHT22;62824;52.994;-3.936;2023-02-17T01:34:57;9.40;99.90
74384;DHT22;62824;52.994;-3.936;2023-02-17T01:37:23;9.40;99.90
74384;DHT22;62824;52.994;-3.936;2023-02-17T01:39:48;9.40;99.90
74384;DHT22;62824;52.994;-3.936;2023-02-17T01:42:16;9.40;99.90
74384;DHT22;62824;52.994;-3.936;2023-02-17T01:48:10;9.40;99.90
74384;DHT22;62824;52.994;-3.936;2023-02-17T01:50:43;9.40;99.90
74384;DHT22;62824;52.994;-3.936;2023-02-17T01:53:12;9.40;99.90
74384;DHT22;62824;52.994;-3.936;2023-02-17T01:55:40;9.40;99.90
74384;DHT22;62824;52.994;-3.936;2023-02-17T01:58:08;9.50;99.90
74384;DHT22;62824;52.994;-3.936;2023-02-17T02:00:36;9.50;99.90
74384;DHT22;62824;52.994;-3.936;2023-02-17T02:03:03;9.40;99.90
74384;DHT22;62824;52.994;-3.936;2023-02-17T02:05:30;9.50;99.90
74384;DHT22;62824;52.994;-3.936;2023-02-17T02:07:56;9.50;99.90
74384;DHT22;62824;52.994;-3.936;2023-02-17T02:10:21;9.40;99.90
74384;DHT22;62824;52.994;-3.936;2023-02-17T02:12:47;9.40;99.90
74384;DHT22;62824;52.994;-3.936;2023-02-17T02:15:19;9.50;99.90
74384;DHT22;62824;52.994;-3.936;2023-02-17T02:33:44;9.50;99.90
74384;DHT22;62824;52.994;-3.936;2023-02-17T02:36:12;9.40;99.90
74384;DHT22;62824;52.994;-3.936;2023-02-17T02:41:20;9.50;99.90
74384;DHT22;62824;52.994;-3.936;2023-02-17T02:43:48;9.50;99.90
74384;DHT22;62824;52.994;-3.936;2023-02-17T02:46:14;9.50;99.90
74384;DHT22;62824;52.994;-3.936;2023-02-17T02:48:40;9.40;99.90
74384;DHT22;62824;52.994;-3.936;2023-02-17T03:04:54;9.40;99.90
74384;DHT22;62824;52.994;-3.936;2023-02-17T03:07:27;9.40;99.90
74384;DHT22;62824;52.994;-3.936;2023-02-17T03:09:56;9.40;99.90
74384;DHT22;62824;52.994;-3.936;2023-02-17T03:12:25;9.30;99.90
74384;DHT22;62824;52.994;-3.936;2023-02-17T03:15:03;9.30;99.90
74384;DHT22;62824;52.994;-3.936;2023-02-17T03:17:31;9.30;99.90
74384;DHT22;62824;52.994;-3.936;2023-02-17T03:19:58;9.40;99.90
74384;DHT22;62824;52.994;-3.936;2023-02-17T03:22:33;9.40;99.90
74384;DHT22;62824;52.994;-3.936;2023-02-17T03:24:59;9.30;99.90
74384;DHT22;62824;52.994;-3.936;2023-02-17T03:27:26;9.40;99.90
74384;DHT22;62824;52.994;-3.936;2023-02-17T03:29:52;9.30;99.90
74384;DHT22;62824;52.994;-3.936;2023-02-17T03:32:18;9.40;99.90
74384;DHT22;62824;52.994;-3.936;2023-02-17T03:34:44;9.30;99.90
74384;DHT22;62824;52.994;-3.936;2023-02-17T03:37:10;9.30;99.90
74384;DHT22;62824;52.994;-3.936;2023-02-17T03:39:35;9.30;99.90
74384;DHT22;62824;52.994;-3.936;2023-02-17T03:42:01;9.30;99.90
74384;DHT22;62824;52.994;-3.936;2023-02-17T03:44:27;9.40;99.90
74384;DHT22;62824;52.994;-3.936;2023-02-17T03:46:53;9.40;99.90
74384;DHT22;62824;52.994;-3.936;2023-02-17T03:49:19;9.30;99.90
74384;DHT22;62824;52.994;-3.936;2023-02-17T03:51:45;9.30;99.90
74384;DHT22;62824;52.994;-3.936;2023-02-17T03:54:11;9.30;99.90
74384;DHT22;62824;52.994;-3.936;2023-02-17T03:56:37;9.30;99.90
74384;DHT22;62824;52.994;-3.936;2023-02-17T03:59:03;9.30;99.90
74384;DHT22;62824;52.994;-3.936;2023-02-17T04:01:29;9.30;99.90
74384;DHT22;62824;52.994;-3.936;2023-02-17T04:03:54;9.30;99.90
74384;DHT22;62824;52.994;-3.936;2023-02-17T04:06:20;9.40;99.90
74384;DHT22;62824;52.994;-3.936;2023-02-17T04:08:46;9.30;99.90
74384;DHT22;62824;52.994;-3.936;2023-02-17T04:11:12;9.30;99.90
74384;DHT22;62824;52.994;-3.936;2023-02-17T04:13:38;9.30;99.90
74384;DHT22;62824;52.994;-3.936;2023-02-17T04:16:06;9.30;99.90
74384;DHT22;62824;52.994;-3.936;2023-02-17T04:18:33;9.30;99.90
74384;DHT22;62824;52.994;-3.936;2023-02-17T04:20:59;9.30;99.90
74384;DHT22;62824;52.994;-3.936;2023-02-17T04:23:24;9.30;99.90
74384;DHT22;62824;52.994;-3.936;2023-02-17T04:25:50;9.30;99.90
74384;DHT22;62824;52.994;-3.936;2023-02-17T04:28:16;9.30;99.90
74384;DHT22;62824;52.994;-3.936;2023-02-17T04:30:44;9.30;99.90
74384;DHT22;62824;52.994;-3.936;2023-02-17T04:33:10;9.30;99.90
74384;DHT22;62824;52.994;-3.936;2023-02-17T04:35:35;9.30;99.90
74384;DHT22;62824;52.994;-3.936;2023-02-17T04:38:01;9.30;99.90
74384;DHT22;62824;52.994;-3.936;2023-02-17T04:40:27;9.30;99.90
74384;DHT22;62824;52.994;-3.936;2023-02-17T04:42:53;9.30;99.90
74384;DHT22;62824;52.994;-3.936;2023-02-17T04:45:18;9.30;99.90
74384;DHT22;62824;52.994;-3.936;2023-02-17T04:47:44;9.40;99.90
74384;DHT22;62824;52.994;-3.936;2023-02-17T04:50:10;9.40;99.90
74384;DHT22;62824;52.994;-3.936;2023-02-17T04:52:36;9.40;99.90
74384;DHT22;62824;52.994;-3.936;2023-02-17T04:55:03;9.40;99.90
74384;DHT22;62824;52.994;-3.936;2023-02-17T04:57:28;9.40;99.90
74384;DHT22;62824;52.994;-3.936;2023-02-17T04:59:54;9.40;99.90
74384;DHT22;62824;52.994;-3.936;2023-02-17T05:02:20;9.30;99.90
74384;DHT22;62824;52.994;-3.936;2023-02-17T05:04:45;9.30;99.90
74384;DHT22;62824;52.994;-3.936;2023-02-17T05:07:11;9.30;99.90
74384;DHT22;62824;52.994;-3.936;2023-02-17T05:09:37;9.40;99.90
74384;DHT22;62824;52.994;-3.936;2023-02-17T05:12:03;9.30;99.90
74384;DHT22;62824;52.994;-3.936;2023-02-17T05:14:30;9.40;99.90
74384;DHT22;62824;52.994;-3.936;2023-02-17T05:16:56;9.30;99.90
74384;DHT22;62824;52.994;-3.936;2023-02-17T05:19:22;9.40;99.90
74384;DHT22;62824;52.994;-3.936;2023-02-17T05:21:47;9.30;99.90
74384;DHT22;62824;52.994;-3.936;2023-02-17T05:24:13;9.40;99.90
74384;DHT22;62824;52.994;-3.936;2023-02-17T05:26:39;9.40;99.90
74384;DHT22;62824;52.994;-3.936;2023-02-17T05:29:04;9.40;99.90
74384;DHT22;62824;52.994;-3.936;2023-02-17T05:31:30;9.40;99.90
74384;DHT22;62824;52.994;-3.936;2023-02-17T05:33:56;9.30;99.90
74384;DHT22;62824;52.994;-3.936;2023-02-17T05:36:21;9.30;99.90
74384;DHT22;62824;52.994;-3.936;2023-02-17T05:38:47;9.30;99.90
74384;DHT22;62824;52.994;-3.936;2023-02-17T05:41:18;9.30;99.90
74384;DHT22;62824;52.994;-3.936;2023-02-17T05:43:45;9.30;99.90
74384;DHT22;62824;52.994;-3.936;2023-02-17T05:46:11;9.30;99.90
74384;DHT22;62824;52.994;-3.936;2023-02-17T05:48:37;9.20;99.90
74384;DHT22;62824;52.994;-3.936;2023-02-17T05:51:04;9.20;99.90
74384;DHT22;62824;52.994;-3.936;2023-02-17T05:53:30;9.20;99.90
74384;DHT22;62824;52.994;-3.936;2023-02-17T05:55:56;9.20;99.90
74384;DHT22;62824;52.994;-3.936;2023-02-17T05:58:22;9.20;99.90
74384;DHT22;62824;52.994;-3.936;2023-02-17T06:00:49;9.20;99.90
74384;DHT22;62824;52.994;-3.936;2023-02-17T06:03:15;9.20;99.90
74384;DHT22;62824;52.994;-3.936;2023-02-17T06:05:41;9.20;99.90
74384;DHT22;62824;52.994;-3.936;2023-02-17T06:08:07;9.20;99.90
74384;DHT22;62824;52.994;-3.936;2023-02-17T06:10:33;9.20;99.90
74384;DHT22;62824;52.994;-3.936;2023-02-17T06:12:59;9.10;99.90
74384;DHT22;62824;52.994;-3.936;2023-02-17T06:15:25;9.10;99.90
74384;DHT22;62824;52.994;-3.936;2023-02-17T06:17:51;9.10;99.90
74384;DHT22;62824;52.994;-3.936;2023-02-17T06:20:17;9.10;99.90
74384;DHT22;62824;52.994;-3.936;2023-02-17T06:22:47;9.10;99.90
74384;DHT22;62824;52.994;-3.936;2023-02-17T06:25:13;9.10;99.90
74384;DHT22;62824;52.994;-3.936;2023-02-17T06:27:40;9.10;99.90
74384;DHT22;62824;52.994;-3.936;2023-02-17T06:30:08;9.20;99.90
74384;DHT22;62824;52.994;-3.936;2023-02-17T06:32:35;9.20;99.90
74384;DHT22;62824;52.994;-3.936;2023-02-17T06:35:01;9.20;99.90
74384;DHT22;62824;52.994;-3.936;2023-02-17T06:37:27;9.10;99.90
74384;DHT22;62824;52.994;-3.936;2023-02-17T06:39:53;9.10;99.90
74384;DHT22;62824;52.994;-3.936;2023-02-17T06:42:19;9.10;99.90
74384;DHT22;62824;52.994;-3.936;2023-02-17T06:44:48;9.20;99.90
74384;DHT22;62824;52.994;-3.936;2023-02-17T06:47:14;9.10;99.90
74384;DHT22;62824;52.994;-3.936;2023-02-17T06:49:40;9.10;99.90
74384;DHT22;62824;52.994;-3.936;2023-02-17T06:52:06;9.10;99.90
74384;DHT22;62824;52.994;-3.936;2023-02-17T06:54:32;9.10;99.90
74384;DHT22;62824;52.994;-3.936;2023-02-17T06:56:58;9.10;99.90
74384;DHT22;62824;52.994;-3.936;2023-02-17T06:59:24;9.10;99.90
74384;DHT22;62824;52.994;-3.936;2023-02-17T07:01:50;9.10;99.90
74384;DHT22;62824;52.994;-3.936;2023-02-17T07:04:16;9.10;99.90
74384;DHT22;62824;52.994;-3.936;2023-02-17T07:06:42;9.20;99.90
74384;DHT22;62824;52.994;-3.936;2023-02-17T07:09:08;9.20;99.90
74384;DHT22;62824;52.994;-3.936;2023-02-17T07:11:38;9.20;99.90
74384;DHT22;62824;52.994;-3.936;2023-02-17T07:14:04;9.20;99.90
74384;DHT22;62824;52.994;-3.936;2023-02-17T07:16:31;9.30;99.90
74384;DHT22;62824;52.994;-3.936;2023-02-17T07:18:57;9.30;99.90
74384;DHT22;62824;52.994;-3.936;2023-02-17T07:21:25;9.30;99.90
74384;DHT22;62824;52.994;-3.936;2023-02-17T07:23:52;9.30;99.90
74384;DHT22;62824;52.994;-3.936;2023-02-17T07:26:18;9.30;99.90
74384;DHT22;62824;52.994;-3.936;2023-02-17T07:28:44;9.30;99.90
74384;DHT22;62824;52.994;-3.936;2023-02-17T07:31:15;9.30;99.90
74384;DHT22;62824;52.994;-3.936;2023-02-17T07:33:42;9.30;99.90
74384;DHT22;62824;52.994;-3.936;2023-02-17T07:36:14;9.40;99.90
74384;DHT22;62824;52.994;-3.936;2023-02-17T07:38:42;9.40;99.90
74384;DHT22;62824;52.994;-3.936;2023-02-17T07:41:10;9.40;99.90
74384;DHT22;62824;52.994;-3.936;2023-02-17T07:43:36;9.30;99.90
74384;DHT22;62824;52.994;-3.936;2023-02-17T07:46:03;9.40;99.90
74384;DHT22;62824;52.994;-3.936;2023-02-17T07:48:29;9.40;99.90
74384;DHT22;62824;52.994;-3.936;2023-02-17T07:50:55;9.40;99.90
74384;DHT22;62824;52.994;-3.936;2023-02-17T07:53:22;9.40;99.90
74384;DHT22;62824;52.994;-3.936;2023-02-17T07:55:48;9.40;99.90
74384;DHT22;62824;52.994;-3.936;2023-02-17T07:58:14;9.40;99.90
74384;DHT22;62824;52.994;-3.936;2023-02-17T08:00:40;9.40;99.90
74384;DHT22;62824;52.994;-3.936;2023-02-17T08:03:06;9.40;99.90
74384;DHT22;62824;52.994;-3.936;2023-02-17T08:05:32;9.50;99.90
74384;DHT22;62824;52.994;-3.936;2023-02-17T08:07:58;9.50;99.90
74384;DHT22;62824;52.994;-3.936;2023-02-17T08:10:42;9.50;99.90
74384;DHT22;62824;52.994;-3.936;2023-02-17T08:13:27;9.50;99.90
74384;DHT22;62824;52.994;-3.936;2023-02-17T08:15:56;9.50;99.90
74384;DHT22;62824;52.994;-3.936;2023-02-17T08:18:25;9.50;99.90
74384;DHT22;62824;52.994;-3.936;2023-02-17T08:20:51;9.60;99.90
74384;DHT22;62824;52.994;-3.936;2023-02-17T08:23:19;9.60;99.90
74384;DHT22;62824;52.994;-3.936;2023-02-17T08:25:45;9.60;99.90
74384;DHT22;62824;52.994;-3.936;2023-02-17T08:28:12;9.60;99.90
74384;DHT22;62824;52.994;-3.936;2023-02-17T08:30:38;9.60;99.90
74384;DHT22;62824;52.994;-3.936;2023-02-17T08:33:05;9.60;99.90
74384;DHT22;62824;52.994;-3.936;2023-02-17T08:35:31;9.60;99.90
74384;DHT22;62824;52.994;-3.936;2023-02-17T08:37:57;9.60;99.90
74384;DHT22;62824;52.994;-3.936;2023-02-17T08:40:24;9.60;99.90
74384;DHT22;62824;52.994;-3.936;2023-02-17T08:42:50;9.60;99.90
74384;DHT22;62824;52.994;-3.936;2023-02-17T08:45:18;9.60;99.90
74384;DHT22;62824;52.994;-3.936;2023-02-17T08:47:49;9.60;99.90
74384;DHT22;62824;52.994;-3.936;2023-02-17T08:50:28;9.70;99.90
74384;DHT22;62824;52.994;-3.936;2023-02-17T08:52:54;9.70;99.90
74384;DHT22;62824;52.994;-3.936;2023-02-17T08:55:25;9.60;99.90
74384;DHT22;62824;52.994;-3.936;2023-02-17T08:57:57;9.60;99.90
74384;DHT22;62824;52.994;-3.936;2023-02-17T09:00:26;9.60;99.90
74384;DHT22;62824;52.994;-3.936;2023-02-17T09:02:52;9.60;99.90
74384;DHT22;62824;52.994;-3.936;2023-02-17T09:05:18;9.60;99.90
74384;DHT22;62824;52.994;-3.936;2023-02-17T09:07:44;9.60;99.90
74384;DHT22;62824;52.994;-3.936;2023-02-17T09:10:11;9.60;99.90
74384;DHT22;62824;52.994;-3.936;2023-02-17T09:12:37;9.60;99.90
74384;DHT22;62824;52.994;-3.936;2023-02-17T09:15:04;9.70;99.90
74384;DHT22;62824;52.994;-3.936;2023-02-17T09:17:30;9.60;99.90
74384;DHT22;62824;52.994;-3.936;2023-02-17T09:19:56;9.70;99.90
74384;DHT22;62824;52.994;-3.936;2023-02-17T09:22:24;9.70;99.90
74384;DHT22;62824;52.994;-3.936;2023-02-17T09:24:53;9.70;99.90
74384;DHT22;62824;52.994;-3.936;2023-02-17T09:27:19;9.70;99.90
74384;DHT22;62824;52.994;-3.936;2023-02-17T09:29:48;9.70;99.90
74384;DHT22;62824;52.994;-3.936;2023-02-17T09:32:18;9.60;99.90
74384;DHT22;62824;52.994;-3.936;2023-02-17T09:34:47;9.60;99.90
74384;DHT22;62824;52.994;-3.936;2023-02-17T09:37:31;9.60;99.90
74384;DHT22;62824;52.994;-3.936;2023-02-17T09:40:02;9.60;99.90
74384;DHT22;62824;52.994;-3.936;2023-02-17T09:42:28;9.60;99.90
74384;DHT22;62824;52.994;-3.936;2023-02-17T09:45:05;9.60;99.90
74384;DHT22;62824;52.994;-3.936;2023-02-17T09:47:42;9.60;99.90
74384;DHT22;62824;52.994;-3.936;2023-02-17T09:50:13;9.60;99.90
74384;DHT22;62824;52.994;-3.936;2023-02-17T09:52:51;9.60;99.90
74384;DHT22;62824;52.994;-3.936;2023-02-17T09:56:11;9.60;99.90
74384;DHT22;62824;52.994;-3.936;2023-02-17T09:58:38;9.70;99.90
74384;DHT22;62824;52.994;-3.936;2023-02-17T10:01:21;9.70;99.90
74384;DHT22;62824;52.994;-3.936;2023-02-17T10:07:06;9.80;99.90
74384;DHT22;62824;52.994;-3.936;2023-02-17T10:09:44;9.80;99.90
74384;DHT22;62824;52.994;-3.936;2023-02-17T10:12:22;9.80;99.90
74384;DHT22;62824;52.994;-3.936;2023-02-17T10:14:56;9.80;99.90
74384;DHT22;62824;52.994;-3.936;2023-02-17T10:21:01;9.90;99.90
74384;DHT22;62824;52.994;-3.936;2023-02-17T10:23:49;10.00;99.90
74384;DHT22;62824;52.994;-3.936;2023-02-17T10:26:47;10.00;99.90
74384;DHT22;62824;52.994;-3.936;2023-02-17T10:29:29;10.00;99.90
74384;DHT22;62824;52.994;-3.936;2023-02-17T10:34:39;10.00;99.90
74384;DHT22;62824;52.994;-3.936;2023-02-17T10:37:17;10.10;99.90
74384;DHT22;62824;52.994;-3.936;2023-02-17T10:39:52;10.10;99.90
74384;DHT22;62824;52.994;-3.936;2023-02-17T10:42:20;10.20;99.90
74384;DHT22;62824;52.994;-3.936;2023-02-17T10:44:48;10.20;99.90
74384;DHT22;62824;52.994;-3.936;2023-02-17T10:47:17;10.20;99.90
74384;DHT22;62824;52.994;-3.936;2023-02-17T10:49:48;10.30;99.90
74384;DHT22;62824;52.994;-3.936;2023-02-17T10:52:27;10.30;99.90
74384;DHT22;62824;52.994;-3.936;2023-02-17T10:55:00;10.40;99.90
74384;DHT22;62824;52.994;-3.936;2023-02-17T10:57:37;10.50;99.90
74384;DHT22;62824;52.994;-3.936;2023-02-17T11:00:05;10.70;99.90
74384;DHT22;62824;52.994;-3.936;2023-02-17T11:05:02;11.00;99.90
74384;DHT22;62824;52.994;-3.936;2023-02-17T11:07:41;11.30;99.90
74384;DHT22;62824;52.994;-3.936;2023-02-17T11:10:24;12.00;99.90
74384;DHT22;62824;52.994;-3.936;2023-02-17T11:12:51;12.40;99.90
74384;DHT22;62824;52.994;-3.936;2023-02-17T11:15:23;12.40;99.90
74384;DHT22;62824;52.994;-3.936;2023-02-17T11:17:50;12.70;99.90
74384;DHT22;62824;52.994;-3.936;2023-02-17T11:25:29;12.90;99.90
74384;DHT22;62824;52.994;-3.936;2023-02-17T11:27:58;13.00;99.90
74384;DHT22;62824;52.994;-3.936;2023-02-17T11:30:26;13.80;99.90
74384;DHT22;62824;52.994;-3.936;2023-02-17T11:32:53;13.50;99.90
74384;DHT22;62824;52.994;-3.936;2023-02-17T11:38:11;13.80;99.90
74384;DHT22;62824;52.994;-3.936;2023-02-17T11:40:37;14.40;99.90
74384;DHT22;62824;52.994;-3.936;2023-02-17T11:43:04;14.40;99.90
74384;DHT22;62824;52.994;-3.936;2023-02-17T11:54:46;14.10;99.90
74384;DHT22;62824;52.994;-3.936;2023-02-17T12:21:47;12.90;99.90
74384;DHT22;62824;52.994;-3.936;2023-02-17T12:24:31;12.90;99.90
74384;DHT22;62824;52.994;-3.936;2023-02-17T12:30:02;13.50;99.90
74384;DHT22;62824;52.994;-3.936;2023-02-17T12:33:03;13.30;99.90
74384;DHT22;62824;52.994;-3.936;2023-02-17T12:35:56;13.20;99.90
74384;DHT22;62824;52.994;-3.936;2023-02-17T12:38:35;13.80;99.90
74384;DHT22;62824;52.994;-3.936;2023-02-17T12:41:20;14.20;99.90
74384;DHT22;62824;52.994;-3.936;2023-02-17T12:43:49;14.40;99.90
74384;DHT22;62824;52.994;-3.936;2023-02-17T12:46:26;15.30;99.90
74384;DHT22;62824;52.994;-3.936;2023-02-17T12:49:02;15.20;95.40
74384;DHT22;62824;52.994;-3.936;2023-02-17T12:54:24;14.50;98.40
74384;DHT22;62824;52.994;-3.936;2023-02-17T12:59:50;14.20;99.50
74384;DHT22;62824;52.994;-3.936;2023-02-17T13:02:22;13.90;99.90
74384;DHT22;62824;52.994;-3.936;2023-02-17T13:04:50;13.90;99.90
74384;DHT22;62824;52.994;-3.936;2023-02-17T13:09:55;14.10;99.90
74384;DHT22;62824;52.994;-3.936;2023-02-17T13:15:00;14.10;99.90
74384;DHT22;62824;52.994;-3.936;2023-02-17T13:23:07;13.50;99.90
74384;DHT22;62824;52.994;-3.936;2023-02-17T13:25:35;13.60;99.90
74384;DHT22;62824;52.994;-3.936;2023-02-17T13:28:14;13.50;99.90
74384;DHT22;62824;52.994;-3.936;2023-02-17T13:30:42;13.50;99.90
74384;DHT22;62824;52.994;-3.936;2023-02-17T13:35:49;13.20;99.90
74384;DHT22;62824;52.994;-3.936;2023-02-17T13:38:31;13.50;99.90
74384;DHT22;62824;52.994;-3.936;2023-02-17T13:41:06;14.30;99.90
74384;DHT22;62824;52.994;-3.936;2023-02-17T13:43:40;14.70;99.90
74384;DHT22;62824;52.994;-3.936;2023-02-17T13:46:10;15.00;98.70
74384;DHT22;62824;52.994;-3.936;2023-02-17T13:48:38;15.10;96.30
74384;DHT22;62824;52.994;-3.936;2023-02-17T13:51:05;15.00;92.30
74384;DHT22;62824;52.994;-3.936;2023-02-17T13:53:38;14.60;92.30
74384;DHT22;62824;52.994;-3.936;2023-02-17T13:56:21;14.30;91.70
74384;DHT22;62824;52.994;-3.936;2023-02-17T13:58:48;14.00;94.10
74384;DHT22;62824;52.994;-3.936;2023-02-17T14:01:16;13.90;93.00
74384;DHT22;62824;52.994;-3.936;2023-02-17T14:03:48;13.60;94.70
74384;DHT22;62824;52.994;-3.936;2023-02-17T14:06:26;13.70;97.20
74384;DHT22;62824;52.994;-3.936;2023-02-17T14:08:53;13.80;99.90
74384;DHT22;62824;52.994;-3.936;2023-02-17T14:11:22;13.60;99.90
74384;DHT22;62824;52.994;-3.936;2023-02-17T14:13:50;13.70;99.90
74384;DHT22;62824;52.994;-3.936;2023-02-17T14:16:37;14.00;99.90
74384;DHT22;62824;52.994;-3.936;2023-02-17T14:19:09;13.90;99.90
74384;DHT22;62824;52.994;-3.936;2023-02-17T14:22:00;13.70;99.90
74384;DHT22;62824;52.994;-3.936;2023-02-17T14:24:30;13.40;99.90
74384;DHT22;62824;52.994;-3.936;2023-02-17T14:27:04;13.30;99.90
74384;DHT22;62824;52.994;-3.936;2023-02-17T14:29:45;13.30;99.90
74384;DHT22;62824;52.994;-3.936;2023-02-17T14:32:29;13.30;99.90
74384;DHT22;62824;52.994;-3.936;2023-02-17T14:35:14;13.40;99.90
74384;DHT22;62824;52.994;-3.936;2023-02-17T14:37:43;13.50;99.90
74384;DHT22;62824;52.994;-3.936;2023-02-17T14:40:21;13.50;97.40
74384;DHT22;62824;52.994;-3.936;2023-02-17T14:42:48;13.60;95.70
74384;DHT22;62824;52.994;-3.936;2023-02-17T14:45:15;13.60;95.80
74384;DHT22;62824;52.994;-3.936;2023-02-17T14:47:44;13.30;96.80
74384;DHT22;62824;52.994;-3.936;2023-02-17T14:50:10;13.30;97.60
74384;DHT22;62824;52.994;-3.936;2023-02-17T14:52:43;13.20;98.30
74384;DHT22;62824;52.994;-3.936;2023-02-17T14:58:01;13.10;99.90
74384;DHT22;62824;52.994;-3.936;2023-02-17T15:00:27;13.00;99.90
74384;DHT22;62824;52.994;-3.936;2023-02-17T15:02:52;13.50;99.90
74384;DHT22;62824;52.994;-3.936;2023-02-17T15:05:18;13.60;99.90
74384;DHT22;62824;52.994;-3.936;2023-02-17T15:07:45;13.70;99.90
74384;DHT22;62824;52.994;-3.936;2023-02-17T15:10:25;13.60;99.90
74384;DHT22;62824;52.994;-3.936;2023-02-17T15:12:51;13.30;99.90
74384;DHT22;62824;52.994;-3.936;2023-02-17T15:15:18;13.10;99.90
74384;DHT22;62824;52.994;-3.936;2023-02-17T15:17:44;12.90;99.90
74384;DHT22;62824;52.994;-3.936;2023-02-17T15:20:12;12.90;99.90
74384;DHT22;62824;52.994;-3.936;2023-02-17T15:22:38;12.70;99.90
74384;DHT22;62824;52.994;-3.936;2023-02-17T15:25:14;12.60;99.90
74384;DHT22;62824;52.994;-3.936;2023-02-17T15:27:40;12.70;99.90
74384;DHT22;62824;52.994;-3.936;2023-02-17T15:30:10;12.70;99.90
74384;DHT22;62824;52.994;-3.936;2023-02-17T15:32:36;12.70;99.90
74384;DHT22;62824;52.994;-3.936;2023-02-17T15:35:04;12.40;99.90
74384;DHT22;62824;52.994;-3.936;2023-02-17T15:37:34;12.30;99.90
74384;DHT22;62824;52.994;-3.936;2023-02-17T15:40:00;12.10;99.90
74384;DHT22;62824;52.994;-3.936;2023-02-17T15:42:25;12.00;99.90
74384;DHT22;62824;52.994;-3.936;2023-02-17T15:44:51;12.00;99.90
74384;DHT22;62824;52.994;-3.936;2023-02-17T15:47:18;11.80;99.90
74384;DHT22;62824;52.994;-3.936;2023-02-17T15:49:45;11.80;99.90
74384;DHT22;62824;52.994;-3.936;2023-02-17T15:52:11;11.90;99.90
74384;DHT22;62824;52.994;-3.936;2023-02-17T15:54:41;11.80;99.90
74384;DHT22;62824;52.994;-3.936;2023-02-17T15:57:09;11.80;99.90
74384;DHT22;62824;52.994;-3.936;2023-02-17T15:59:39;11.70;99.90
74384;DHT22;62824;52.994;-3.936;2023-02-17T16:02:20;11.90;99.90
74384;DHT22;62824;52.994;-3.936;2023-02-17T16:04:46;11.90;99.90
74384;DHT22;62824;52.994;-3.936;2023-02-17T16:07:13;11.80;99.90
74384;DHT22;62824;52.994;-3.936;2023-02-17T16:09:39;11.70;99.90
74384;DHT22;62824;52.994;-3.936;2023-02-17T16:12:07;11.70;99.90
74384;DHT22;62824;52.994;-3.936;2023-02-17T16:14:38;11.60;99.90
74384;DHT22;62824;52.994;-3.936;2023-02-17T16:17:08;11.50;99.90
74384;DHT22;62824;52.994;-3.936;2023-02-17T16:19:37;11.40;99.90
74384;DHT22;62824;52.994;-3.936;2023-02-17T16:22:02;11.30;99.90
74384;DHT22;62824;52.994;-3.936;2023-02-17T16:24:28;11.20;99.90
74384;DHT22;62824;52.994;-3.936;2023-02-17T16:26:54;11.20;99.90
74384;DHT22;62824;52.994;-3.936;2023-02-17T16:29:21;11.10;99.90
74384;DHT22;62824;52.994;-3.936;2023-02-17T16:31:48;10.90;99.90
74384;DHT22;62824;52.994;-3.936;2023-02-17T16:34:19;10.80;99.90
74384;DHT22;62824;52.994;-3.936;2023-02-17T16:36:50;10.80;99.90
74384;DHT22;62824;52.994;-3.936;2023-02-17T16:39:17;10.90;99.90
74384;DHT22;62824;52.994;-3.936;2023-02-17T16:41:45;11.00;99.90
74384;DHT22;62824;52.994;-3.936;2023-02-17T16:44:16;11.10;99.90
74384;DHT22;62824;52.994;-3.936;2023-02-17T16:47:00;11.20;99.90
74384;DHT22;62824;52.994;-3.936;2023-02-17T16:49:32;11.20;99.90
74384;DHT22;62824;52.994;-3.936;2023-02-17T16:52:03;11.30;99.90
74384;DHT22;62824;52.994;-3.936;2023-02-17T16:54:30;11.30;99.90
74384;DHT22;62824;52.994;-3.936;2023-02-17T16:56:56;11.20;99.90
74384;DHT22;62824;52.994;-3.936;2023-02-17T16:59:24;11.00;99.90
74384;DHT22;62824;52.994;-3.936;2023-02-17T17:01:51;10.90;99.90
74384;DHT22;62824;52.994;-3.936;2023-02-17T17:04:19;10.90;99.90
74384;DHT22;62824;52.994;-3.936;2023-02-17T17:06:49;10.80;99.90
74384;DHT22;62824;52.994;-3.936;2023-02-17T17:09:20;10.70;99.90
74384;DHT22;62824;52.994;-3.936;2023-02-17T17:11:47;10.70;99.90
74384;DHT22;62824;52.994;-3.936;2023-02-17T17:14:13;10.60;99.90
74384;DHT22;62824;52.994;-3.936;2023-02-17T17:16:41;10.60;99.90
74384;DHT22;62824;52.994;-3.936;2023-02-17T17:19:11;10.50;99.90
74384;DHT22;62824;52.994;-3.936;2023-02-17T17:21:37;10.60;99.90
74384;DHT22;62824;52.994;-3.936;2023-02-17T17:24:02;10.70;99.90
74384;DHT22;62824;52.994;-3.936;2023-02-17T17:26:36;10.60;99.90
74384;DHT22;62824;52.994;-3.936;2023-02-17T17:29:11;10.60;99.90
74384;DHT22;62824;52.994;-3.936;2023-02-17T17:31:37;10.60;99.90